TimeEST,TemperatureF,Dew PointF,Humidity,Sea Level PressureIn,VisibilityMPH,Wind Direction,Wind SpeedMPH,Gust SpeedMPH,PrecipitationIn,Events,Conditions,WindDirDegrees,DateUTC
12:52 AM,53.1,50.0,89,30.24,4.0,West,3.5,-,N/A,,Overcast,260,2013-11-17 05:52:00
1:41 AM,51.8,50.0,94,30.24,2.5,Calm,Calm,-,N/A,,Overcast,0,2013-11-17 06:41:00
1:45 AM,51.8,48.2,88,30.24,1.8,Calm,Calm,-,N/A,,Overcast,0,2013-11-17 06:45:00
1:52 AM,52.0,50.0,93,30.24,3.0,Calm,Calm,-,N/A,,Overcast,0,2013-11-17 06:52:00
2:06 AM,51.8,50.0,94,30.23,3.0,Calm,Calm,-,N/A,,Overcast,0,2013-11-17 07:06:00
2:22 AM,53.6,50.0,88,30.21,3.0,Calm,Calm,-,N/A,,Overcast,0,2013-11-17 07:22:00
2:32 AM,53.6,50.0,88,30.20,3.0,SE,3.5,-,N/A,,Overcast,130,2013-11-17 07:32:00
2:49 AM,53.6,51.8,94,30.20,5.0,South,4.6,-,N/A,,Overcast,190,2013-11-17 07:49:00
2:52 AM,54.0,51.1,90,30.20,6.0,South,4.6,-,N/A,,Overcast,190,2013-11-17 07:52:00
3:13 AM,53.6,51.8,94,30.20,7.0,SSE,4.6,-,N/A,,Overcast,150,2013-11-17 08:13:00
3:52 AM,55.0,52.0,89,30.20,6.0,SSW,4.6,-,N/A,,Overcast,200,2013-11-17 08:52:00
4:52 AM,54.0,52.0,93,30.19,4.0,SE,4.6,-,N/A,,Overcast,130,2013-11-17 09:52:00
5:52 AM,54.0,52.0,93,30.18,3.0,Calm,Calm,-,N/A,,Overcast,0,2013-11-17 10:52:00
6:10 AM,53.6,50.0,88,30.16,3.0,SSE,4.6,-,N/A,,Mostly Cloudy,150,2013-11-17 11:10:00
6:30 AM,53.6,51.8,94,30.15,3.0,Calm,Calm,-,N/A,,Mostly Cloudy,0,2013-11-17 11:30:00
6:52 AM,53.1,51.1,93,30.16,3.0,SW,3.5,-,N/A,,Mostly Cloudy,230,2013-11-17 11:52:00
6:54 AM,53.6,51.8,94,30.16,3.0,SW,4.6,-,N/A,,Mostly Cloudy,230,2013-11-17 11:54:00
7:52 AM,55.0,52.0,89,30.18,3.0,SSW,3.5,-,N/A,,Overcast,200,2013-11-17 12:52:00
8:16 AM,53.6,51.8,94,30.18,2.5,South,3.5,-,N/A,,Overcast,170,2013-11-17 13:16:00
8:38 AM,55.4,51.8,88,30.18,3.0,South,6.9,-,N/A,,Overcast,170,2013-11-17 13:38:00
8:52 AM,54.0,52.0,93,30.18,3.0,South,4.6,-,N/A,,Overcast,170,2013-11-17 13:52:00
9:48 AM,59.0,53.6,82,30.17,9.0,South,6.9,-,N/A,,Mostly Cloudy,190,2013-11-17 14:48:00
9:52 AM,59.0,54.0,83,30.17,10.0,South,8.1,-,N/A,,Mostly Cloudy,190,2013-11-17 14:52:00
10:52 AM,60.1,54.0,80,30.15,10.0,SSW,6.9,-,N/A,,Mostly Cloudy,200,2013-11-17 15:52:00
11:52 AM,60.1,54.0,80,30.12,10.0,South,8.1,-,N/A,,Overcast,180,2013-11-17 16:52:00
12:52 PM,62.1,55.0,78,30.08,10.0,South,6.9,-,N/A,,Overcast,190,2013-11-17 17:52:00
1:52 PM,64.0,55.0,73,30.05,10.0,SSW,10.4,-,N/A,,Mostly Cloudy,200,2013-11-17 18:52:00
2:52 PM,64.9,55.9,73,30.02,10.0,SSW,10.4,-,N/A,,Mostly Cloudy,200,2013-11-17 19:52:00
3:52 PM,62.1,55.0,78,30.01,10.0,South,5.8,-,N/A,,Overcast,190,2013-11-17 20:52:00
4:52 PM,60.1,54.0,80,29.99,10.0,South,8.1,-,N/A,,Overcast,180,2013-11-17 21:52:00
5:52 PM,60.1,54.0,80,29.97,10.0,South,8.1,-,N/A,,Overcast,180,2013-11-17 22:52:00
6:52 PM,60.1,54.0,80,29.93,10.0,South,10.4,-,N/A,,Overcast,190,2013-11-17 23:52:00
7:52 PM,59.0,54.0,83,29.92,10.0,South,10.4,-,N/A,,Overcast,190,2013-11-18 00:52:00
8:34 PM,60.8,55.4,82,29.90,10.0,South,8.1,-,0.00,Rain,Light Rain,190,2013-11-18 01:34:00
8:52 PM,60.1,55.0,83,29.88,10.0,South,9.2,-,0.00,,Overcast,190,2013-11-18 01:52:00
9:52 PM,61.0,55.9,83,29.85,10.0,South,8.1,-,N/A,,Overcast,190,2013-11-18 02:52:00
10:52 PM,57.9,55.0,90,29.82,10.0,South,10.4,-,0.00,,Overcast,190,2013-11-18 03:52:00
11:52 PM,61.0,57.0,87,29.77,10.0,SSW,12.7,-,0.00,,Mostly Cloudy,200,2013-11-18 04:52:00